createdAt,value
2023-09-03T00:00:05.397Z,14.43
2023-09-03T00:02:38.708Z,14.42
2023-09-03T00:05:07.542Z,14.41
2023-09-03T00:07:35.452Z,14.27
2023-09-03T00:10:03.377Z,14.29
2023-09-03T00:12:31.420Z,14.15
2023-09-03T00:15:00.887Z,14.15
2023-09-03T00:17:29.832Z,14.12
2023-09-03T00:19:57.916Z,14.08
2023-09-03T00:22:25.846Z,14.21
2023-09-03T00:24:53.808Z,14.32
2023-09-03T00:27:21.691Z,14.25
2023-09-03T00:29:49.600Z,14.13
2023-09-03T00:32:18.843Z,14.21
2023-09-03T00:34:47.093Z,14.32
2023-09-03T00:37:14.982Z,14.28
2023-09-03T00:39:42.976Z,14.15
2023-09-03T00:42:11.001Z,14.13
2023-09-03T00:44:38.954Z,14.15
2023-09-03T00:47:07.078Z,14.06
2023-09-03T00:49:44.118Z,13.94
2023-09-03T00:52:13.058Z,13.84
2023-09-03T00:54:41.814Z,13.81
2023-09-03T00:57:09.816Z,13.87
2023-09-03T00:59:37.930Z,14.01
2023-09-03T01:02:06.141Z,13.92
2023-09-03T01:04:34.123Z,13.87
2023-09-03T01:07:03.480Z,13.75
2023-09-03T01:09:31.495Z,13.67
2023-09-03T01:12:08.708Z,13.69
2023-09-03T01:14:44.744Z,13.72
2023-09-03T01:17:18.280Z,13.60
2023-09-03T01:19:58.914Z,13.54
2023-09-03T01:22:39.859Z,13.52
2023-09-03T01:25:27.957Z,13.48
2023-09-03T01:28:22.955Z,13.40
2023-09-03T01:30:53.057Z,13.38
2023-09-03T01:33:21.519Z,13.38
2023-09-03T01:35:51.832Z,13.39
2023-09-03T01:38:19.976Z,13.42
2023-09-03T01:40:49.301Z,13.50
2023-09-03T01:43:17.347Z,13.55
2023-09-03T01:45:55.751Z,13.57
2023-09-03T01:48:35.103Z,13.62
2023-09-03T01:51:11.935Z,13.68
2023-09-03T01:53:48.102Z,13.63
2023-09-03T01:56:16.568Z,13.41
2023-09-03T01:58:48.975Z,13.43
2023-09-03T02:01:19.366Z,13.52
2023-09-03T02:03:49.508Z,13.49
2023-09-03T02:06:17.373Z,13.34
2023-09-03T02:08:45.260Z,13.45
2023-09-03T02:11:13.155Z,13.52
2023-09-03T02:13:41.554Z,13.42
2023-09-03T02:16:09.488Z,13.43
2023-09-03T02:18:38.685Z,13.29
2023-09-03T02:21:06.623Z,13.17
2023-09-03T02:23:34.488Z,13.15
2023-09-03T02:26:03.761Z,13.20
2023-09-03T02:28:32.167Z,13.32
2023-09-03T02:31:00.047Z,13.45
2023-09-03T02:33:29.057Z,13.29
2023-09-03T02:35:58.303Z,13.30
2023-09-03T02:38:26.265Z,13.25
2023-09-03T02:40:54.281Z,13.21
2023-09-03T02:43:22.194Z,13.28
2023-09-03T02:45:50.095Z,13.44
2023-09-03T02:48:18.267Z,13.35
2023-09-03T02:50:46.280Z,13.11
2023-09-03T02:53:15.536Z,13.14
2023-09-03T02:55:43.388Z,13.28
2023-09-03T02:58:11.208Z,12.99
2023-09-03T03:00:39.252Z,12.91
2023-09-03T03:03:07.156Z,12.86
2023-09-03T03:05:35.175Z,12.76
2023-09-03T03:08:04.249Z,12.78
2023-09-03T03:10:34.248Z,12.83
2023-09-03T03:13:02.296Z,12.94
2023-09-03T03:15:30.179Z,12.70
2023-09-03T03:17:58.490Z,12.56
2023-09-03T03:20:26.345Z,12.69
2023-09-03T03:22:54.189Z,12.76
2023-09-03T03:25:23.214Z,12.85
2023-09-03T03:27:52.523Z,13.07
2023-09-03T03:30:20.389Z,13.19
2023-09-03T03:32:48.939Z,13.22
2023-09-03T03:35:18.170Z,13.18
2023-09-03T03:37:46.014Z,13.22
2023-09-03T03:40:14.173Z,13.31
2023-09-03T03:42:42.017Z,13.29
2023-09-03T03:45:12.091Z,13.45
2023-09-03T03:47:40.076Z,13.40
2023-09-03T03:50:08.553Z,13.53
2023-09-03T03:52:38.032Z,13.56
2023-09-03T03:55:07.112Z,13.37
2023-09-03T03:57:34.913Z,13.32
2023-09-03T04:00:02.893Z,13.32
2023-09-03T04:02:41.541Z,13.57
2023-09-03T04:05:10.052Z,13.61
2023-09-03T04:07:37.868Z,13.44
2023-09-03T04:10:06.610Z,13.32
2023-09-03T04:12:34.589Z,13.33
2023-09-03T04:15:02.904Z,13.28
2023-09-03T04:17:31.726Z,13.40
2023-09-03T04:20:00.990Z,13.51
2023-09-03T04:22:28.879Z,13.73
2023-09-03T04:24:57.870Z,14.00
2023-09-03T04:27:25.976Z,13.44
2023-09-03T04:29:54.017Z,13.26
2023-09-03T04:32:21.938Z,13.48
2023-09-03T04:34:50.119Z,13.48
2023-09-03T04:37:19.405Z,13.75
2023-09-03T04:39:47.460Z,13.68
2023-09-03T04:42:15.314Z,13.31
2023-09-03T04:44:43.805Z,13.17
2023-09-03T04:47:11.813Z,13.24
2023-09-03T04:49:39.666Z,13.34
2023-09-03T04:52:08.083Z,13.39
2023-09-03T04:54:37.305Z,13.42
2023-09-03T04:57:05.411Z,13.49
2023-09-03T04:59:33.312Z,13.53
2023-09-03T05:02:01.412Z,13.80
2023-09-03T05:04:29.396Z,13.47
2023-09-03T05:06:57.708Z,13.50
2023-09-03T05:09:26.358Z,13.58
2023-09-03T05:11:55.643Z,13.44
2023-09-03T05:14:24.481Z,13.59
2023-09-03T05:16:52.287Z,13.72
2023-09-03T05:19:20.542Z,13.69
2023-09-03T05:21:49.169Z,13.50
2023-09-03T05:24:17.920Z,13.46
2023-09-03T05:26:46.533Z,13.48
2023-09-03T05:29:15.824Z,13.62
2023-09-03T05:31:43.846Z,13.35
2023-09-03T05:34:11.701Z,13.42
2023-09-03T05:36:40.013Z,13.60
2023-09-03T05:39:07.868Z,13.60
2023-09-03T05:41:35.719Z,13.73
2023-09-03T05:44:07.420Z,13.68
2023-09-03T05:46:37.666Z,13.76
2023-09-03T05:49:05.829Z,13.87
2023-09-03T05:51:34.765Z,13.94
2023-09-03T05:54:03.455Z,13.78
2023-09-03T05:56:31.996Z,13.96
2023-09-03T05:59:06.453Z,14.04
2023-09-03T06:01:35.679Z,14.18
2023-09-03T06:04:07.209Z,14.07
2023-09-03T06:06:39.545Z,14.20
2023-09-03T06:09:08.495Z,14.10
2023-09-03T06:11:36.666Z,14.24
2023-09-03T06:14:04.804Z,14.27
2023-09-03T06:16:32.735Z,14.24
2023-09-03T06:19:00.677Z,13.89
2023-09-03T06:21:30.516Z,14.25
2023-09-03T06:23:58.398Z,14.49
2023-09-03T06:26:26.337Z,14.41
2023-09-03T06:28:54.189Z,14.55
2023-09-03T06:31:22.128Z,14.58
2023-09-03T06:33:50.094Z,14.32
2023-09-03T06:36:18.036Z,14.33
2023-09-03T06:38:47.294Z,14.44
2023-09-03T06:41:15.157Z,14.57
2023-09-03T06:43:43.342Z,14.76
2023-09-03T06:46:11.252Z,15.00
2023-09-03T06:48:39.100Z,15.02
2023-09-03T06:51:07.187Z,15.17
2023-09-03T06:53:35.030Z,15.23
2023-09-03T06:56:04.551Z,15.20
2023-09-03T06:58:32.402Z,15.13
2023-09-03T07:01:00.256Z,14.76
2023-09-03T07:03:28.153Z,14.78
2023-09-03T07:05:56.113Z,14.84
2023-09-03T07:08:24.894Z,15.43
2023-09-03T07:10:52.855Z,15.32
2023-09-03T07:13:22.175Z,15.29
2023-09-03T07:15:50.018Z,15.29
2023-09-03T07:18:17.875Z,15.14
2023-09-03T07:20:45.721Z,15.36
2023-09-03T07:23:15.943Z,15.24
2023-09-03T07:25:43.987Z,15.61
2023-09-03T07:28:11.844Z,15.74
2023-09-03T07:30:42.439Z,15.70
2023-09-03T07:33:10.349Z,15.56
2023-09-03T07:35:38.227Z,15.43
2023-09-03T07:38:06.207Z,15.17
2023-09-03T07:40:34.123Z,15.17
2023-09-03T07:43:01.985Z,15.36
2023-09-03T07:45:29.839Z,15.77
2023-09-03T07:47:59.644Z,15.89
2023-09-03T07:50:29.044Z,16.11
2023-09-03T07:52:56.887Z,15.77
2023-09-03T07:55:24.854Z,15.61
2023-09-03T07:57:52.684Z,15.69
2023-09-03T08:00:20.779Z,16.13
2023-09-03T08:02:48.655Z,16.09
2023-09-03T08:05:18.666Z,16.01
2023-09-03T08:07:46.918Z,15.99
2023-09-03T08:10:14.805Z,15.96
2023-09-03T08:12:42.815Z,16.22
2023-09-03T08:15:12.399Z,16.24
2023-09-03T08:17:40.263Z,16.22
2023-09-03T08:20:09.519Z,16.11
2023-09-03T08:22:38.992Z,16.11
2023-09-03T08:25:08.200Z,16.20
2023-09-03T08:27:35.267Z,16.16
2023-09-03T08:30:03.153Z,16.21
2023-09-03T08:32:31.288Z,16.38
2023-09-03T08:34:59.127Z,16.57
2023-09-03T08:37:28.286Z,16.78
2023-09-03T08:39:57.570Z,16.88
2023-09-03T08:42:26.894Z,17.37
2023-09-03T08:45:00.053Z,17.12
2023-09-03T08:47:27.872Z,17.27
2023-09-03T08:49:56.160Z,17.28
2023-09-03T08:52:24.474Z,17.21
2023-09-03T08:54:53.767Z,17.46
2023-09-03T08:57:29.241Z,17.20
2023-09-03T08:59:57.706Z,17.40
2023-09-03T09:02:28.676Z,17.21
2023-09-03T09:04:56.575Z,17.37
2023-09-03T09:07:26.431Z,18.01
2023-09-03T09:09:59.679Z,18.22
2023-09-03T09:12:35.583Z,18.43
2023-09-03T09:15:05.680Z,18.13
2023-09-03T09:17:38.384Z,18.33
2023-09-03T09:20:07.321Z,18.15
2023-09-03T09:22:41.149Z,18.21
2023-09-03T09:25:10.594Z,18.35
2023-09-03T09:27:42.016Z,18.39
2023-09-03T09:30:13.572Z,18.57
2023-09-03T09:32:42.882Z,18.86
2023-09-03T09:35:11.343Z,18.72
2023-09-03T09:37:40.343Z,18.98
2023-09-03T09:40:09.585Z,18.85
2023-09-03T09:42:54.881Z,18.98
2023-09-03T09:45:22.885Z,18.64
2023-09-03T09:48:08.328Z,18.11
2023-09-03T09:50:37.658Z,18.51
2023-09-03T09:53:06.700Z,18.87
2023-09-03T09:55:34.636Z,19.07
2023-09-03T09:58:04.081Z,19.62
2023-09-03T10:00:35.987Z,19.51
2023-09-03T10:03:06.041Z,19.56
2023-09-03T10:05:36.131Z,19.18
2023-09-03T10:08:05.234Z,19.63
2023-09-03T10:10:33.471Z,19.43
2023-09-03T10:13:03.618Z,19.62
2023-09-03T10:15:33.312Z,19.82
2023-09-03T10:18:04.479Z,20.09
2023-09-03T10:20:33.212Z,19.96
2023-09-03T10:23:03.580Z,20.42
2023-09-03T10:25:34.804Z,20.34
2023-09-03T10:28:06.706Z,20.53
2023-09-03T10:30:39.955Z,20.44
2023-09-03T10:33:10.149Z,20.95
2023-09-03T10:35:38.431Z,21.10
2023-09-03T10:38:07.526Z,21.20
2023-09-03T10:40:35.496Z,21.48
2023-09-03T10:43:27.930Z,21.70
2023-09-03T10:46:06.996Z,22.07
2023-09-03T10:48:36.826Z,22.84
2023-09-03T10:51:05.167Z,24.21
2023-09-03T10:53:40.402Z,24.22
2023-09-03T10:56:13.563Z,23.50
2023-09-03T10:58:55.486Z,23.41
2023-09-03T11:01:27.750Z,23.95
2023-09-03T11:03:56.355Z,25.08
2023-09-03T11:06:25.323Z,25.74
2023-09-03T11:09:23.479Z,25.44
2023-09-03T11:11:51.404Z,24.85
2023-09-03T11:14:19.455Z,24.50
2023-09-03T11:16:48.663Z,24.34
2023-09-03T11:19:16.528Z,25.32
2023-09-03T11:21:44.460Z,26.15
2023-09-03T11:24:16.619Z,26.08
2023-09-03T11:26:45.233Z,26.25
2023-09-03T11:29:20.638Z,26.25
2023-09-03T11:31:50.827Z,27.44
2023-09-03T11:34:21.423Z,27.39
2023-09-03T11:36:51.334Z,26.02
2023-09-03T11:39:19.718Z,26.80
2023-09-03T11:41:48.266Z,26.52
2023-09-03T11:44:16.708Z,27.33
2023-09-03T11:46:59.485Z,28.39
2023-09-03T11:49:27.784Z,27.39
2023-09-03T11:51:56.061Z,27.91
2023-09-03T11:54:24.723Z,28.60
2023-09-03T11:56:53.285Z,28.84
2023-09-03T11:59:21.512Z,29.14
2023-09-03T12:01:49.662Z,29.32
2023-09-03T12:04:19.106Z,29.72
2023-09-03T12:06:47.115Z,29.28
2023-09-03T12:09:15.534Z,29.64
2023-09-03T12:11:43.388Z,28.28
2023-09-03T12:14:11.568Z,28.63
2023-09-03T12:16:47.544Z,27.63
2023-09-03T12:19:15.467Z,27.89
2023-09-03T12:21:44.748Z,28.03
2023-09-03T12:24:12.668Z,27.91
2023-09-03T12:26:40.564Z,28.86
2023-09-03T12:29:21.095Z,29.21
2023-09-03T12:31:49.039Z,28.59
2023-09-03T12:34:17.662Z,26.78
2023-09-03T12:36:57.980Z,27.02
2023-09-03T12:39:30.524Z,27.72
2023-09-03T12:41:58.760Z,29.39
2023-09-03T12:44:27.976Z,31.21
2023-09-03T12:46:56.221Z,30.81
2023-09-03T12:49:24.410Z,28.60
2023-09-03T12:51:52.344Z,29.75
2023-09-03T12:54:21.773Z,29.42
2023-09-03T12:56:50.776Z,28.58
2023-09-03T12:59:18.854Z,28.33
2023-09-03T13:01:46.784Z,29.69
2023-09-03T13:04:16.091Z,28.11
2023-09-03T13:06:44.291Z,28.05
2023-09-03T13:09:13.220Z,28.09
2023-09-03T13:11:42.485Z,29.32
2023-09-03T13:14:10.327Z,28.98
2023-09-03T13:16:38.289Z,30.23
2023-09-03T13:19:06.215Z,29.70
2023-09-03T13:21:37.316Z,29.92
2023-09-03T13:24:06.897Z,28.52
2023-09-03T13:26:34.761Z,27.91
2023-09-03T13:29:03.993Z,26.61
2023-09-03T13:31:31.856Z,27.67
2023-09-03T13:33:59.762Z,28.04
2023-09-03T13:36:27.968Z,27.32
2023-09-03T13:38:55.844Z,28.27
2023-09-03T13:41:24.182Z,28.99
2023-09-03T13:43:52.287Z,30.22
2023-09-03T13:46:23.042Z,30.42
2023-09-03T13:48:51.080Z,29.71
2023-09-03T13:51:18.902Z,30.83
2023-09-03T13:53:47.929Z,29.99
2023-09-03T13:56:15.785Z,28.50
2023-09-03T13:58:43.637Z,28.42
2023-09-03T14:01:11.703Z,30.43
2023-09-03T14:03:40.990Z,30.30
2023-09-03T14:06:10.457Z,30.87
2023-09-03T14:08:39.114Z,32.11
2023-09-03T14:11:07.104Z,30.36
2023-09-03T14:13:34.983Z,29.81
2023-09-03T14:16:02.971Z,30.51
2023-09-03T14:18:30.833Z,30.49
2023-09-03T14:21:00.299Z,30.62
2023-09-03T14:23:28.121Z,32.98
2023-09-03T14:25:55.997Z,29.78
2023-09-03T14:28:24.239Z,30.19
2023-09-03T14:30:52.846Z,30.93
2023-09-03T14:33:23.554Z,32.32
2023-09-03T14:35:51.947Z,32.30
2023-09-03T14:38:21.505Z,33.76
2023-09-03T14:40:53.106Z,32.65
2023-09-03T14:43:21.490Z,35.01
2023-09-03T14:45:49.527Z,33.88
2023-09-03T14:48:17.522Z,30.66
2023-09-03T14:50:45.618Z,28.95
2023-09-03T14:53:13.569Z,28.41
2023-09-03T14:55:46.373Z,28.16
2023-09-03T14:58:14.669Z,26.60
2023-09-03T15:00:42.704Z,26.70
2023-09-03T15:03:10.778Z,26.67
2023-09-03T15:05:38.824Z,26.13
2023-09-03T15:08:07.017Z,26.23
2023-09-03T15:10:34.951Z,25.52
2023-09-03T15:13:04.356Z,25.32
2023-09-03T15:15:32.423Z,25.26
2023-09-03T15:18:00.557Z,24.23
2023-09-03T15:20:28.856Z,24.62
2023-09-03T15:22:56.821Z,24.79
2023-09-03T15:25:24.777Z,24.20
2023-09-03T15:27:52.721Z,24.56
2023-09-03T15:30:24.029Z,23.89
2023-09-03T15:32:53.422Z,23.75
2023-09-03T15:35:22.535Z,24.31
2023-09-03T15:37:50.469Z,23.92
2023-09-03T15:40:18.570Z,23.82
2023-09-03T15:42:46.668Z,23.90
2023-09-03T15:45:14.729Z,24.15
2023-09-03T15:47:44.095Z,24.31
2023-09-03T15:50:12.146Z,24.43
2023-09-03T15:52:40.108Z,24.28
2023-09-03T15:55:08.564Z,23.91
2023-09-03T15:57:36.970Z,23.51
2023-09-03T16:00:09.992Z,23.22
2023-09-03T16:02:37.960Z,23.51
2023-09-03T16:05:08.141Z,23.57
2023-09-03T16:07:36.130Z,23.49
2023-09-03T16:10:04.638Z,23.30
2023-09-03T16:12:35.617Z,22.95
2023-09-03T16:15:05.142Z,22.96
2023-09-03T16:17:33.794Z,23.28
2023-09-03T16:20:01.992Z,23.40
2023-09-03T16:22:31.404Z,23.28
2023-09-03T16:24:59.373Z,23.26
2023-09-03T16:27:27.524Z,23.13
2023-09-03T16:29:55.583Z,23.34
2023-09-03T16:32:23.610Z,23.38
2023-09-03T16:34:51.901Z,23.27
2023-09-03T16:37:22.438Z,23.24
2023-09-03T16:39:53.224Z,22.93
2023-09-03T16:42:21.195Z,22.74
2023-09-03T16:44:50.626Z,22.72
2023-09-03T16:47:18.638Z,22.65
2023-09-03T16:49:49.184Z,22.23
2023-09-03T16:52:17.094Z,22.37
2023-09-03T16:54:45.057Z,22.19
2023-09-03T16:57:14.515Z,22.23
2023-09-03T16:59:42.927Z,22.23
2023-09-03T17:02:13.499Z,21.91
2023-09-03T17:04:43.257Z,21.57
2023-09-03T17:07:11.767Z,21.67
2023-09-03T17:09:39.848Z,21.29
2023-09-03T17:12:08.365Z,21.29
2023-09-03T17:14:37.676Z,21.35
2023-09-03T17:17:06.828Z,21.05
2023-09-03T17:19:36.286Z,21.09
2023-09-03T17:24:32.879Z,20.66
2023-09-03T17:27:01.141Z,20.56
2023-09-03T17:29:30.333Z,20.57
2023-09-03T17:32:00.115Z,20.27
2023-09-03T17:34:28.693Z,19.96
2023-09-03T17:36:56.701Z,19.96
2023-09-03T17:39:25.052Z,19.80
2023-09-03T17:41:52.983Z,19.65
2023-09-03T17:44:20.924Z,19.54
2023-09-03T17:46:48.943Z,19.34
2023-09-03T17:49:18.302Z,19.36
2023-09-03T17:51:46.386Z,19.36
2023-09-03T17:54:14.401Z,19.15
2023-09-03T17:56:42.425Z,19.13
2023-09-03T17:59:10.444Z,18.88
2023-09-03T18:01:38.511Z,18.70
2023-09-03T18:04:06.858Z,18.77
2023-09-03T18:06:36.241Z,18.59
2023-09-03T18:09:04.283Z,18.45
2023-09-03T18:11:33.060Z,18.32
2023-09-03T18:14:01.014Z,18.21
2023-09-03T18:16:29.011Z,18.11
2023-09-03T18:18:57.002Z,18.02
2023-09-03T18:21:24.962Z,17.91
2023-09-03T18:23:54.908Z,17.86
2023-09-03T18:26:23.886Z,17.69
2023-09-03T18:28:52.005Z,17.59
2023-09-03T18:31:20.031Z,17.48
2023-09-03T18:33:48.075Z,17.32
2023-09-03T18:36:17.282Z,17.12
2023-09-03T18:38:47.173Z,17.13
2023-09-03T18:41:16.956Z,17.00
2023-09-03T18:43:46.401Z,16.74
2023-09-03T18:46:15.020Z,16.50
2023-09-03T18:48:43.117Z,16.72
2023-09-03T18:51:11.051Z,16.64
2023-09-03T18:53:39.035Z,16.61
2023-09-03T18:56:07.369Z,16.57
2023-09-03T18:58:36.772Z,16.59
2023-09-03T19:01:08.703Z,16.54
2023-09-03T19:03:37.163Z,16.47
2023-09-03T19:06:07.351Z,16.36
2023-09-03T19:08:35.675Z,16.14
2023-09-03T19:11:03.786Z,16.05
2023-09-03T19:13:31.933Z,16.13
2023-09-03T19:16:02.139Z,15.95
2023-09-03T19:18:30.321Z,15.86
2023-09-03T19:20:58.370Z,15.94
2023-09-03T19:23:26.607Z,15.91
2023-09-03T19:25:54.730Z,15.88
2023-09-03T19:28:23.312Z,15.77
2023-09-03T19:30:53.012Z,15.63
2023-09-03T19:33:22.839Z,15.67
2023-09-03T19:35:57.813Z,15.59
2023-09-03T19:38:26.735Z,15.62
2023-09-03T19:40:54.818Z,15.42
2023-09-03T19:43:24.044Z,15.40
2023-09-03T19:45:56.399Z,15.30
2023-09-03T19:48:27.069Z,15.41
2023-09-03T19:50:55.542Z,15.46
2023-09-03T19:53:23.469Z,15.39
2023-09-03T19:55:51.872Z,15.27
2023-09-03T19:58:20.691Z,15.24
2023-09-03T20:00:50.463Z,15.15
2023-09-03T20:03:18.596Z,15.24
2023-09-03T20:05:57.365Z,15.17
2023-09-03T20:08:25.483Z,15.25
2023-09-03T20:10:53.471Z,15.26
2023-09-03T20:13:21.546Z,15.23
2023-09-03T20:15:56.152Z,15.17
2023-09-03T20:18:24.489Z,15.00
2023-09-03T20:20:55.067Z,14.88
2023-09-03T20:23:23.788Z,15.08
2023-09-03T20:26:02.863Z,14.98
2023-09-03T20:28:44.094Z,15.10
2023-09-03T20:31:15.555Z,15.07
2023-09-03T20:33:44.144Z,14.94
2023-09-03T20:36:13.623Z,14.90
2023-09-03T20:38:41.799Z,14.83
2023-09-03T20:41:10.569Z,14.82
2023-09-03T20:43:38.609Z,14.79
2023-09-03T20:46:06.621Z,14.79
2023-09-03T20:48:34.724Z,14.80
2023-09-03T20:51:03.736Z,14.87
2023-09-03T20:53:33.149Z,14.90
2023-09-03T20:56:01.152Z,14.90
2023-09-03T20:58:29.236Z,14.89
2023-09-03T21:00:57.273Z,14.82
2023-09-03T21:03:25.283Z,14.75
2023-09-03T21:05:54.505Z,14.73
2023-09-03T21:08:23.294Z,14.76
2023-09-03T21:10:58.847Z,14.75
2023-09-03T21:13:27.492Z,14.62
2023-09-03T21:15:57.084Z,14.49
2023-09-03T21:18:26.044Z,14.39
2023-09-03T21:20:56.414Z,14.48
2023-09-03T21:23:24.595Z,14.53
2023-09-03T21:25:52.673Z,14.50
2023-09-03T21:28:22.218Z,14.56
2023-09-03T21:30:50.518Z,14.55
2023-09-03T21:33:18.518Z,14.54
2023-09-03T21:35:48.262Z,14.53
2023-09-03T21:38:16.371Z,14.53
2023-09-03T21:40:44.337Z,14.45
2023-09-03T21:43:12.397Z,14.46
2023-09-03T21:45:41.761Z,14.47
2023-09-03T21:48:11.507Z,14.39
2023-09-03T21:50:39.823Z,14.23
2023-09-03T21:53:08.015Z,14.33
2023-09-03T21:55:38.372Z,14.38
2023-09-03T21:58:06.804Z,14.44
2023-09-03T22:00:35.026Z,14.46
2023-09-03T22:03:04.729Z,14.39
2023-09-03T22:05:32.742Z,14.35
2023-09-03T22:08:00.698Z,14.36
2023-09-03T22:10:28.937Z,14.38
2023-09-03T22:12:56.935Z,14.35
2023-09-03T22:15:24.894Z,14.30
2023-09-03T22:17:53.964Z,14.26
2023-09-03T22:20:25.117Z,14.22
2023-09-03T22:22:53.328Z,14.05
2023-09-03T22:25:21.305Z,14.02
2023-09-03T22:27:49.270Z,14.08
2023-09-03T22:30:17.273Z,14.02
2023-09-03T22:32:45.320Z,14.13
2023-09-03T22:35:13.541Z,14.23
2023-09-03T22:37:42.818Z,14.01
2023-09-03T22:40:11.633Z,14.00
2023-09-03T22:42:40.033Z,14.03
2023-09-03T22:45:08.869Z,14.01
2023-09-03T22:47:36.920Z,13.93
2023-09-03T22:50:05.454Z,13.80
2023-09-03T22:52:33.446Z,13.88
2023-09-03T22:55:02.962Z,13.90
2023-09-03T22:57:30.974Z,13.90
2023-09-03T22:59:58.937Z,13.89
2023-09-03T23:02:27.716Z,13.87
2023-09-03T23:04:55.698Z,13.88
2023-09-03T23:07:23.740Z,13.81
2023-09-03T23:09:53.202Z,13.60
2023-09-03T23:12:22.932Z,13.57
2023-09-03T23:14:51.297Z,13.45
2023-09-03T23:17:19.124Z,13.38
2023-09-03T23:19:46.975Z,13.31
2023-09-03T23:22:14.850Z,13.23
2023-09-03T23:24:42.735Z,13.20
2023-09-03T23:27:10.551Z,13.21
2023-09-03T23:29:44.332Z,13.07
2023-09-03T23:32:12.247Z,13.09
2023-09-03T23:34:40.110Z,13.01
2023-09-03T23:37:08.061Z,12.95
2023-09-03T23:39:35.852Z,12.83
2023-09-03T23:42:04.183Z,12.95
2023-09-03T23:44:32.101Z,13.20
2023-09-03T23:47:12.486Z,13.31
2023-09-03T23:49:42.282Z,13.41
2023-09-03T23:52:10.185Z,13.29
2023-09-03T23:54:38.050Z,13.06
2023-09-03T23:57:06.337Z,12.84
2023-09-03T23:59:34.198Z,12.81
